createdAt,value
2018-12-16T00:01:37.933Z,1.80
2018-12-16T00:04:06.497Z,1.80
2018-12-16T00:06:35.303Z,1.70
2018-12-16T00:09:05.271Z,1.80
2018-12-16T00:11:33.840Z,1.40
2018-12-16T00:14:02.329Z,1.40
2018-12-16T00:16:31.124Z,1.50
2018-12-16T00:18:59.710Z,1.60
2018-12-16T00:21:28.282Z,1.80
2018-12-16T00:23:56.684Z,1.80
2018-12-16T00:27:32.333Z,1.80
2018-12-16T00:30:00.871Z,1.70
2018-12-16T00:32:29.374Z,1.60
2018-12-16T00:34:57.679Z,1.50
2018-12-16T00:37:26.371Z,1.40
2018-12-16T00:39:55.982Z,1.50
2018-12-16T00:42:24.603Z,1.60
2018-12-16T00:44:54.030Z,1.60
2018-12-16T00:47:22.412Z,1.60
2018-12-16T00:49:51.359Z,1.70
2018-12-16T00:52:20.131Z,1.70
2018-12-16T00:54:49.046Z,1.80
2018-12-16T00:57:18.084Z,1.80
2018-12-16T00:59:47.586Z,1.70
2018-12-16T01:02:21.574Z,1.70
2018-12-16T01:04:50.027Z,1.50
2018-12-16T01:07:18.596Z,1.60
2018-12-16T01:09:47.049Z,1.50
2018-12-16T01:12:15.634Z,1.60
2018-12-16T01:14:44.281Z,1.80
2018-12-16T01:17:12.905Z,1.70
2018-12-16T01:19:41.597Z,1.60
2018-12-16T01:22:10.240Z,1.70
2018-12-16T01:24:38.810Z,1.80
2018-12-16T01:27:07.107Z,2.00
2018-12-16T01:29:35.853Z,1.90
2018-12-16T01:32:04.216Z,1.80
2018-12-16T01:34:32.481Z,1.90
2018-12-16T01:37:00.863Z,1.80
2018-12-16T01:39:29.457Z,1.90
2018-12-16T01:41:57.735Z,1.90
2018-12-16T01:44:26.145Z,1.90
2018-12-16T01:46:54.507Z,2.00
2018-12-16T01:49:22.829Z,2.00
2018-12-16T01:51:51.828Z,1.90
2018-12-16T01:54:20.105Z,2.00
2018-12-16T01:56:48.349Z,2.10
2018-12-16T01:59:16.600Z,1.80
2018-12-16T02:01:50.412Z,1.80
2018-12-16T02:04:18.762Z,1.80
2018-12-16T02:06:47.031Z,1.90
2018-12-16T02:09:15.562Z,1.90
2018-12-16T02:11:43.950Z,2.00
2018-12-16T02:14:12.272Z,1.80
2018-12-16T02:16:40.574Z,1.70
2018-12-16T02:19:08.909Z,1.50
2018-12-16T02:21:37.265Z,1.60
2018-12-16T02:24:05.603Z,1.60
2018-12-16T02:26:33.863Z,1.60
2018-12-16T02:29:02.214Z,1.40
2018-12-16T02:31:30.526Z,1.30
2018-12-16T02:33:58.781Z,1.30
2018-12-16T02:36:27.011Z,1.20
2018-12-16T02:38:55.283Z,1.40
2018-12-16T02:41:23.608Z,1.20
2018-12-16T02:43:51.883Z,1.40
2018-12-16T02:46:20.240Z,1.30
2018-12-16T02:48:48.509Z,1.40
2018-12-16T02:51:17.026Z,1.50
2018-12-16T02:53:45.368Z,1.20
2018-12-16T02:56:13.607Z,1.30
2018-12-16T02:58:41.990Z,1.10
2018-12-16T03:01:10.224Z,1.20
2018-12-16T03:03:38.566Z,1.10
2018-12-16T03:06:06.893Z,1.10
2018-12-16T03:08:35.240Z,0.90
2018-12-16T03:11:03.880Z,1.20
2018-12-16T03:13:32.118Z,1.00
2018-12-16T03:16:00.434Z,1.00
2018-12-16T03:18:29.021Z,0.90
2018-12-16T03:20:57.422Z,1.00
2018-12-16T03:23:26.692Z,0.80
2018-12-16T03:25:54.966Z,1.00
2018-12-16T03:28:23.944Z,1.10
2018-12-16T03:30:52.219Z,1.10
2018-12-16T03:33:20.614Z,1.10
2018-12-16T03:35:48.860Z,1.00
2018-12-16T03:38:17.112Z,1.10
2018-12-16T03:40:45.413Z,0.80
2018-12-16T03:43:13.733Z,1.00
2018-12-16T03:45:42.110Z,1.00
2018-12-16T03:48:10.383Z,1.10
2018-12-16T03:50:38.703Z,1.00
2018-12-16T03:53:07.175Z,1.00
2018-12-16T03:55:35.552Z,1.10
2018-12-16T03:58:03.901Z,1.10
2018-12-16T04:00:32.162Z,0.80
2018-12-16T04:03:00.437Z,0.90
2018-12-16T04:05:28.855Z,0.70
2018-12-16T04:07:57.147Z,0.60
2018-12-16T04:10:26.292Z,0.50
2018-12-16T04:12:54.699Z,0.70
2018-12-16T04:15:23.294Z,0.80
2018-12-16T04:17:52.221Z,0.80
2018-12-16T04:20:20.686Z,0.70
2018-12-16T04:22:49.067Z,0.70
2018-12-16T04:25:17.333Z,0.60
2018-12-16T04:27:45.802Z,0.70
2018-12-16T04:30:15.313Z,0.70
2018-12-16T04:32:43.984Z,0.50
2018-12-16T04:35:12.434Z,0.80
2018-12-16T04:37:41.524Z,0.60
2018-12-16T04:40:10.006Z,0.60
2018-12-16T04:42:38.365Z,0.40
2018-12-16T04:45:06.901Z,0.50
2018-12-16T04:47:35.674Z,0.60
2018-12-16T04:50:04.882Z,0.70
2018-12-16T04:52:33.897Z,0.80
2018-12-16T04:55:03.363Z,1.10
2018-12-16T04:57:32.073Z,1.10
2018-12-16T05:00:00.722Z,1.00
2018-12-16T05:02:29.156Z,0.80
2018-12-16T05:04:57.483Z,1.10
2018-12-16T05:07:25.904Z,1.00
2018-12-16T05:09:54.237Z,0.80
2018-12-16T05:12:22.653Z,0.80
2018-12-16T05:14:50.941Z,1.00
2018-12-16T05:17:19.281Z,0.90
2018-12-16T05:19:47.561Z,1.00
2018-12-16T05:22:15.829Z,0.80
2018-12-16T05:24:44.113Z,0.60
2018-12-16T05:27:12.395Z,0.70
2018-12-16T05:29:40.806Z,0.90
2018-12-16T05:32:09.071Z,0.90
2018-12-16T05:34:37.550Z,0.90
2018-12-16T05:37:05.977Z,0.80
2018-12-16T05:39:34.268Z,0.80
2018-12-16T05:42:02.553Z,0.90
2018-12-16T05:44:30.846Z,0.80
2018-12-16T05:46:59.245Z,1.00
2018-12-16T05:49:27.777Z,1.00
2018-12-16T05:51:56.105Z,1.00
2018-12-16T05:54:24.452Z,0.70
2018-12-16T05:56:52.730Z,0.70
2018-12-16T05:59:21.005Z,0.70
2018-12-16T06:01:49.823Z,0.80
2018-12-16T06:04:18.068Z,0.80
2018-12-16T06:06:46.358Z,1.00
2018-12-16T06:09:14.664Z,0.90
2018-12-16T06:11:42.943Z,0.80
2018-12-16T06:14:11.313Z,0.80
2018-12-16T06:16:39.634Z,0.60
2018-12-16T06:19:07.940Z,0.80
2018-12-16T06:21:36.199Z,0.90
2018-12-16T06:24:04.567Z,1.00
2018-12-16T06:26:33.158Z,1.10
2018-12-16T06:29:01.434Z,1.00
2018-12-16T06:31:29.721Z,1.00
2018-12-16T06:33:57.994Z,1.00
2018-12-16T06:36:26.479Z,1.30
2018-12-16T06:38:54.703Z,1.20
2018-12-16T06:41:23.008Z,1.00
2018-12-16T06:43:51.298Z,0.90
2018-12-16T06:46:19.904Z,1.10
2018-12-16T06:48:48.414Z,1.10
2018-12-16T06:51:16.657Z,1.00
2018-12-16T06:53:44.984Z,1.20
2018-12-16T06:56:13.270Z,1.10
2018-12-16T06:58:41.691Z,1.20
2018-12-16T07:01:10.087Z,1.10
2018-12-16T07:03:38.328Z,1.20
2018-12-16T07:06:06.617Z,1.20
2018-12-16T07:08:34.888Z,1.20
2018-12-16T07:11:03.258Z,1.10
2018-12-16T07:13:31.498Z,1.20
2018-12-16T07:16:00.154Z,1.20
2018-12-16T07:18:28.399Z,1.20
2018-12-16T07:20:56.718Z,1.20
2018-12-16T07:23:25.949Z,1.10
2018-12-16T07:25:54.242Z,1.30
2018-12-16T07:28:23.048Z,1.40
2018-12-16T07:30:51.599Z,1.50
2018-12-16T07:33:20.337Z,1.40
2018-12-16T07:35:48.853Z,1.40
2018-12-16T07:38:17.162Z,1.50
2018-12-16T07:40:45.712Z,1.50
2018-12-16T07:43:13.956Z,1.40
2018-12-16T07:45:42.327Z,1.30
2018-12-16T07:48:10.603Z,1.40
2018-12-16T07:50:39.009Z,1.60
2018-12-16T07:53:07.260Z,1.60
2018-12-16T07:55:35.525Z,1.60
2018-12-16T07:58:03.922Z,1.80
2018-12-16T08:00:32.169Z,1.90
2018-12-16T08:03:02.704Z,1.90
2018-12-16T08:05:30.964Z,1.80
2018-12-16T08:07:59.293Z,1.70
2018-12-16T08:10:27.620Z,1.60
2018-12-16T08:12:56.064Z,1.60
2018-12-16T08:15:24.476Z,1.70
2018-12-16T08:20:52.828Z,1.70
2018-12-16T08:23:21.088Z,1.90
2018-12-16T08:25:49.447Z,1.80
2018-12-16T08:28:17.943Z,1.60
2018-12-16T08:30:46.246Z,1.70
2018-12-16T08:33:14.555Z,1.50
2018-12-16T08:35:42.883Z,1.80
2018-12-16T08:38:11.355Z,1.80
2018-12-16T08:40:39.778Z,1.90
2018-12-16T08:43:08.060Z,2.10
2018-12-16T08:45:36.450Z,2.10
2018-12-16T08:48:05.239Z,2.00
2018-12-16T08:50:34.392Z,1.80
2018-12-16T08:53:14.509Z,1.80
2018-12-16T08:55:45.959Z,1.70
2018-12-16T08:58:14.679Z,1.60
2018-12-16T09:00:45.271Z,1.50
2018-12-16T09:03:14.713Z,1.60
2018-12-16T09:05:45.617Z,1.70
2018-12-16T09:08:14.354Z,1.80
2018-12-16T09:10:48.965Z,1.70
2018-12-16T09:13:32.590Z,1.70
2018-12-16T09:16:05.753Z,1.70
2018-12-16T09:18:41.625Z,1.50
2018-12-16T09:24:41.159Z,1.60
2018-12-16T09:27:37.117Z,1.70
2018-12-16T09:30:12.600Z,1.50
2018-12-16T09:32:40.925Z,1.50
2018-12-16T09:35:09.435Z,1.60
2018-12-16T09:37:38.873Z,1.70
2018-12-16T09:40:08.667Z,1.90
2018-12-16T09:42:40.315Z,2.00
2018-12-16T09:45:18.621Z,2.10
2018-12-16T09:47:50.999Z,2.10
2018-12-16T09:50:19.329Z,2.10
2018-12-16T09:52:50.214Z,2.10
2018-12-16T09:55:37.968Z,2.10
2018-12-16T09:58:18.840Z,2.00
2018-12-16T10:01:08.347Z,2.10
2018-12-16T10:03:45.370Z,2.30
2018-12-16T10:06:14.143Z,2.70
2018-12-16T10:08:42.747Z,2.70
2018-12-16T10:11:11.255Z,2.60
2018-12-16T10:13:39.584Z,2.80
2018-12-16T10:16:07.985Z,2.80
2018-12-16T10:21:35.210Z,2.90
2018-12-16T10:24:03.689Z,2.80
2018-12-16T10:26:32.103Z,2.90
2018-12-16T10:29:00.470Z,3.10
2018-12-16T10:31:28.962Z,2.90
2018-12-16T10:33:57.337Z,2.90
2018-12-16T10:36:25.712Z,2.90
2018-12-16T10:38:54.654Z,2.60
2018-12-16T10:41:22.996Z,2.70
2018-12-16T10:43:51.281Z,2.70
2018-12-16T10:46:20.554Z,2.90
2018-12-16T10:48:49.069Z,2.80
2018-12-16T10:51:17.659Z,2.90
2018-12-16T10:53:46.110Z,3.10
2018-12-16T10:56:14.929Z,3.00
2018-12-16T10:58:45.275Z,2.90
2018-12-16T11:01:19.017Z,3.00
2018-12-16T11:03:47.559Z,3.40
2018-12-16T11:06:16.055Z,3.40
2018-12-16T11:08:44.980Z,2.80
2018-12-16T11:11:13.436Z,2.90
2018-12-16T11:13:41.824Z,2.80
2018-12-16T11:16:10.157Z,3.00
2018-12-16T11:18:39.250Z,3.10
2018-12-16T11:21:07.554Z,3.10
2018-12-16T11:23:35.932Z,3.20
2018-12-16T11:26:04.905Z,3.30
2018-12-16T11:28:33.704Z,3.20
2018-12-16T11:31:02.078Z,3.10
2018-12-16T11:33:30.722Z,3.00
2018-12-16T11:35:59.056Z,3.00
2018-12-16T11:38:27.898Z,3.20
2018-12-16T11:44:03.073Z,3.10
2018-12-16T11:46:31.701Z,2.90
2018-12-16T11:48:59.969Z,2.90
2018-12-16T11:51:28.898Z,2.90
2018-12-16T11:53:57.232Z,2.80
2018-12-16T11:56:25.706Z,2.70
2018-12-16T11:58:54.203Z,2.90
2018-12-16T12:01:22.870Z,3.10
2018-12-16T12:03:51.098Z,3.30
2018-12-16T12:06:19.449Z,3.20
2018-12-16T12:08:47.801Z,3.20
2018-12-16T12:11:16.067Z,3.20
2018-12-16T12:13:44.690Z,3.40
2018-12-16T12:16:13.117Z,3.10
2018-12-16T12:18:41.478Z,3.30
2018-12-16T12:21:09.901Z,3.20
2018-12-16T12:23:38.274Z,3.00
2018-12-16T12:26:06.565Z,3.30
2018-12-16T12:28:35.679Z,3.10
2018-12-16T12:31:04.562Z,3.10
2018-12-16T12:33:32.871Z,3.20
2018-12-16T12:36:01.423Z,3.20
2018-12-16T12:38:31.159Z,3.20
2018-12-16T12:40:59.813Z,3.10
2018-12-16T12:43:28.589Z,3.30
2018-12-16T12:45:57.030Z,3.20
2018-12-16T12:48:25.623Z,3.00
2018-12-16T12:50:54.541Z,3.00
2018-12-16T12:53:23.612Z,3.00
2018-12-16T12:55:52.556Z,3.10
2018-12-16T12:58:21.527Z,3.20
2018-12-16T13:00:50.072Z,3.30
2018-12-16T13:03:19.051Z,3.20
2018-12-16T13:05:47.668Z,3.10
2018-12-16T13:08:16.259Z,3.10
2018-12-16T13:10:44.698Z,3.20
2018-12-16T13:13:13.246Z,3.10
2018-12-16T13:15:41.536Z,3.30
2018-12-16T13:18:10.093Z,3.40
2018-12-16T13:20:38.987Z,3.30
2018-12-16T13:23:07.510Z,3.20
2018-12-16T13:25:47.219Z,3.30
2018-12-16T13:28:15.610Z,3.30
2018-12-16T13:30:44.221Z,3.60
2018-12-16T13:33:12.744Z,3.70
2018-12-16T13:35:41.435Z,3.70
2018-12-16T13:38:09.912Z,3.70
2018-12-16T13:40:39.005Z,3.50
2018-12-16T13:43:07.967Z,3.50
2018-12-16T13:45:36.740Z,3.60
2018-12-16T13:48:05.176Z,3.40
2018-12-16T13:50:33.882Z,3.50
2018-12-16T13:53:02.382Z,3.60
2018-12-16T13:55:30.727Z,3.50
2018-12-16T13:57:59.053Z,3.70
2018-12-16T14:00:27.377Z,3.60
2018-12-16T14:02:55.755Z,3.50
2018-12-16T14:05:24.130Z,3.60
2018-12-16T14:07:52.693Z,3.60
2018-12-16T14:10:21.226Z,3.60
2018-12-16T14:12:49.490Z,3.50
2018-12-16T14:15:17.879Z,3.60
2018-12-16T14:17:46.177Z,3.80
2018-12-16T14:20:14.646Z,3.80
2018-12-16T14:22:43.444Z,3.80
2018-12-16T14:25:11.797Z,3.70
2018-12-16T14:27:40.496Z,3.50
2018-12-16T14:30:10.710Z,3.50
2018-12-16T14:32:39.231Z,3.70
2018-12-16T14:35:09.262Z,3.60
2018-12-16T14:37:37.773Z,3.60
2018-12-16T14:40:09.581Z,3.80
2018-12-16T14:42:37.825Z,3.80
2018-12-16T14:45:07.914Z,3.80
2018-12-16T14:47:36.817Z,3.70
2018-12-16T14:50:09.530Z,3.70
2018-12-16T14:52:38.140Z,3.80
2018-12-16T14:55:07.745Z,3.80
2018-12-16T14:57:36.329Z,3.80
2018-12-16T15:00:07.439Z,3.80
2018-12-16T15:02:36.025Z,3.80
2018-12-16T15:05:05.266Z,3.70
2018-12-16T15:07:33.493Z,3.70
2018-12-16T15:10:02.380Z,3.80
2018-12-16T15:12:31.242Z,4.00
2018-12-16T15:15:00.027Z,3.90
2018-12-16T15:17:28.637Z,3.80
2018-12-16T15:19:57.783Z,3.70
2018-12-16T15:22:26.570Z,3.70
2018-12-16T15:24:55.470Z,3.70
2018-12-16T15:27:23.980Z,3.80
2018-12-16T15:29:52.510Z,3.80
2018-12-16T15:32:21.035Z,3.90
2018-12-16T15:34:49.424Z,3.90
2018-12-16T15:37:18.184Z,3.80
2018-12-16T15:39:54.041Z,3.60
2018-12-16T15:42:22.629Z,3.80
2018-12-16T15:44:51.152Z,3.90
2018-12-16T15:47:19.561Z,4.00
2018-12-16T15:49:47.833Z,4.00
2018-12-16T15:52:16.590Z,4.10
2018-12-16T15:54:45.178Z,4.00
2018-12-16T15:57:14.059Z,4.00
2018-12-16T15:59:42.516Z,4.00
2018-12-16T16:05:11.593Z,4.30
2018-12-16T16:07:41.515Z,4.20
2018-12-16T16:10:10.019Z,4.00
2018-12-16T16:12:38.503Z,3.90
2018-12-16T16:15:09.356Z,3.90
2018-12-16T16:17:37.888Z,4.00
2018-12-16T16:20:06.728Z,4.00
2018-12-16T16:22:35.515Z,3.90
2018-12-16T16:25:04.265Z,4.00
2018-12-16T16:27:32.717Z,4.00
2018-12-16T16:30:03.826Z,3.80
2018-12-16T16:32:32.204Z,3.80
2018-12-16T16:35:01.000Z,3.80
2018-12-16T16:37:29.577Z,3.70
2018-12-16T16:39:58.091Z,3.80
2018-12-16T16:42:27.283Z,3.60
2018-12-16T16:44:55.845Z,3.60
2018-12-16T16:50:46.874Z,3.80
2018-12-16T16:53:15.809Z,3.80
2018-12-16T16:55:44.140Z,4.00
2018-12-16T16:58:12.926Z,4.10
2018-12-16T17:00:41.617Z,4.10
2018-12-16T17:03:10.932Z,4.10
2018-12-16T17:05:39.518Z,4.10
2018-12-16T17:08:08.251Z,4.10
2018-12-16T17:10:36.974Z,4.20
2018-12-16T17:13:05.534Z,4.20
2018-12-16T17:15:33.963Z,4.10
2018-12-16T17:18:03.090Z,4.20
2018-12-16T17:20:31.976Z,4.30
2018-12-16T17:23:01.220Z,4.20
2018-12-16T17:25:29.569Z,4.40
2018-12-16T17:28:01.487Z,4.40
2018-12-16T17:30:32.538Z,4.40
2018-12-16T17:33:07.480Z,4.40
2018-12-16T17:35:36.320Z,4.30
2018-12-16T17:38:04.729Z,4.20
2018-12-16T17:40:33.160Z,4.10
2018-12-16T17:43:03.013Z,4.00
2018-12-16T17:45:31.432Z,3.90
2018-12-16T17:48:01.289Z,3.60
2018-12-16T17:50:31.079Z,3.60
2018-12-16T17:53:00.190Z,3.40
2018-12-16T17:55:29.009Z,3.50
2018-12-16T17:58:01.689Z,3.60
2018-12-16T18:00:30.669Z,3.50
2018-12-16T18:02:59.603Z,3.60
2018-12-16T18:05:28.201Z,3.50
2018-12-16T18:07:57.078Z,3.50
2018-12-16T18:10:27.328Z,3.40
2018-12-16T18:12:55.964Z,3.20
2018-12-16T18:15:25.509Z,3.30
2018-12-16T18:17:53.903Z,3.30
2018-12-16T18:20:22.370Z,3.20
2018-12-16T18:22:50.636Z,3.30
2018-12-16T18:25:19.022Z,3.20
2018-12-16T18:27:47.442Z,3.10
2018-12-16T18:30:20.397Z,3.10
2018-12-16T18:32:49.021Z,3.30
2018-12-16T18:35:18.354Z,3.20
2018-12-16T18:37:51.510Z,3.20
2018-12-16T18:40:21.193Z,3.40
2018-12-16T18:42:49.991Z,3.50
2018-12-16T18:45:19.111Z,3.50
2018-12-16T18:47:47.614Z,3.50
2018-12-16T18:50:16.214Z,3.40
2018-12-16T18:52:45.167Z,3.50
2018-12-16T18:55:13.751Z,3.60
2018-12-16T18:57:43.072Z,3.70
2018-12-16T19:00:12.142Z,3.80
2018-12-16T19:02:40.511Z,3.90
2018-12-16T19:05:08.894Z,3.90
2018-12-16T19:07:37.176Z,3.90
2018-12-16T19:10:06.842Z,4.00
2018-12-16T19:12:35.166Z,3.90
2018-12-16T19:15:04.384Z,4.00
2018-12-16T19:17:32.631Z,3.80
2018-12-16T19:20:01.131Z,3.90
2018-12-16T19:22:29.406Z,3.90
2018-12-16T19:24:57.692Z,4.00
2018-12-16T19:27:26.009Z,4.00
2018-12-16T19:29:54.272Z,4.10
2018-12-16T19:32:22.619Z,4.20
2018-12-16T19:34:51.054Z,4.20
2018-12-16T19:37:19.392Z,3.90
2018-12-16T19:39:47.798Z,4.00
2018-12-16T19:42:16.228Z,3.90
2018-12-16T19:44:44.578Z,4.10
2018-12-16T19:47:13.407Z,4.10
2018-12-16T19:49:41.825Z,4.00
2018-12-16T19:52:10.890Z,4.10
2018-12-16T19:54:39.909Z,4.10
2018-12-16T19:57:08.276Z,4.20
2018-12-16T19:59:36.640Z,4.30
2018-12-16T20:02:05.012Z,4.10
2018-12-16T20:04:45.797Z,4.10
2018-12-16T20:10:11.567Z,4.20
2018-12-16T20:12:39.886Z,4.10
2018-12-16T20:18:30.691Z,4.10
2018-12-16T20:21:07.477Z,4.10
2018-12-16T20:26:37.723Z,3.80
2018-12-16T20:29:06.366Z,3.60
2018-12-16T20:31:35.195Z,3.70
2018-12-16T20:34:03.620Z,3.70
2018-12-16T20:36:32.274Z,3.80
2018-12-16T20:39:00.824Z,3.80
2018-12-16T20:41:29.630Z,3.70
2018-12-16T20:43:58.957Z,3.80
2018-12-16T20:46:27.791Z,3.50
2018-12-16T20:48:56.649Z,3.50
2018-12-16T20:51:25.154Z,3.50
2018-12-16T20:53:55.117Z,3.50
2018-12-16T20:56:24.134Z,3.50
2018-12-16T20:58:53.749Z,3.50
2018-12-16T21:01:22.539Z,3.50
2018-12-16T21:03:53.339Z,3.40
2018-12-16T21:06:21.806Z,3.40
2018-12-16T21:08:51.000Z,3.50
2018-12-16T21:11:41.428Z,3.50
2018-12-16T21:14:29.842Z,3.50
2018-12-16T21:17:05.152Z,3.40
2018-12-16T21:22:26.640Z,3.30
2018-12-16T21:24:55.390Z,3.30
2018-12-16T21:27:26.051Z,3.30
2018-12-16T21:29:54.112Z,3.30
2018-12-16T21:32:22.732Z,3.30
2018-12-16T21:34:51.529Z,3.30
2018-12-16T21:37:23.524Z,3.30
2018-12-16T21:39:52.454Z,3.30
2018-12-16T21:42:21.190Z,3.30
2018-12-16T21:44:49.502Z,3.30
2018-12-16T21:47:18.568Z,3.30
2018-12-16T21:49:47.299Z,3.20
2018-12-16T21:52:16.190Z,3.10
2018-12-16T21:54:44.676Z,3.00
2018-12-16T21:57:13.098Z,3.00
2018-12-16T21:59:41.759Z,3.00
2018-12-16T22:02:10.286Z,2.90
2018-12-16T22:04:38.645Z,3.00
2018-12-16T22:07:07.085Z,3.10
2018-12-16T22:09:35.510Z,3.30
2018-12-16T22:12:06.111Z,3.50
2018-12-16T22:14:35.507Z,3.50
2018-12-16T22:17:04.641Z,3.50
2018-12-16T22:19:36.750Z,3.40
2018-12-16T22:22:05.353Z,3.40
2018-12-16T22:24:33.949Z,3.40
2018-12-16T22:27:03.405Z,3.30
2018-12-16T22:29:33.702Z,3.40
2018-12-16T22:34:54.501Z,3.40
2018-12-16T22:37:23.118Z,3.40
2018-12-16T22:39:57.206Z,3.30
2018-12-16T22:42:25.478Z,3.40
2018-12-16T22:44:53.707Z,3.40
2018-12-16T22:47:22.255Z,3.30
2018-12-16T22:49:51.382Z,3.40
2018-12-16T22:52:19.732Z,3.40
2018-12-16T22:54:50.106Z,3.40
2018-12-16T22:57:19.523Z,3.50
2018-12-16T22:59:48.433Z,3.40
2018-12-16T23:02:17.051Z,3.30
2018-12-16T23:04:45.961Z,3.30
2018-12-16T23:07:14.921Z,3.30
2018-12-16T23:09:43.348Z,3.30
2018-12-16T23:12:11.710Z,3.20
2018-12-16T23:14:41.478Z,3.20
2018-12-16T23:17:10.298Z,3.10
2018-12-16T23:19:38.937Z,3.10
2018-12-16T23:22:07.654Z,3.10
2018-12-16T23:24:36.421Z,3.20
2018-12-16T23:27:05.171Z,3.10
2018-12-16T23:29:34.036Z,3.10
2018-12-16T23:32:02.758Z,3.10
2018-12-16T23:34:31.206Z,3.10
2018-12-16T23:37:00.190Z,3.10
2018-12-16T23:39:28.913Z,3.20
2018-12-16T23:41:57.294Z,3.30
2018-12-16T23:44:25.677Z,3.10
2018-12-16T23:46:54.063Z,3.00
2018-12-16T23:49:22.425Z,3.10
2018-12-16T23:51:50.774Z,3.10
2018-12-16T23:54:19.035Z,2.90
2018-12-16T23:56:47.337Z,2.90
2018-12-16T23:59:15.973Z,3.00
